TimeCDT,TemperatureF,Dew PointF,Humidity,Sea Level PressureIn,VisibilityMPH,Wind Direction,Wind SpeedMPH,Gust SpeedMPH,PrecipitationIn,Events,Conditions,WindDirDegrees,DateUTC
12:56 AM,73.9,72.0,93,29.98,10.0,SE,6.9,-,N/A,,Overcast,140,2013-09-29 05:56:00
1:53 AM,73.4,71.6,94,29.98,10.0,SSE,15.0,-,N/A,,Overcast,150,2013-09-29 06:53:00
1:56 AM,73.9,72.0,93,29.98,10.0,SSE,15.0,-,N/A,,Overcast,160,2013-09-29 06:56:00
2:56 AM,73.9,72.0,93,29.96,10.0,South,9.2,-,0.00,,Overcast,180,2013-09-29 07:56:00
3:56 AM,73.0,72.0,96,29.95,9.0,SSE,11.5,-,N/A,,Overcast,160,2013-09-29 08:56:00
4:56 AM,73.9,72.0,93,29.95,10.0,SSW,3.5,-,0.00,,Overcast,210,2013-09-29 09:56:00
5:32 AM,73.4,71.6,94,29.97,10.0,Calm,Calm,-,N/A,,Overcast,0,2013-09-29 10:32:00
5:56 AM,73.9,72.0,93,29.96,10.0,Calm,Calm,-,N/A,,Overcast,0,2013-09-29 10:56:00
6:04 AM,73.4,71.6,94,29.98,10.0,Calm,Calm,-,N/A,,Overcast,0,2013-09-29 11:04:00
6:37 AM,73.4,71.6,94,29.98,10.0,Calm,Calm,-,N/A,,Overcast,0,2013-09-29 11:37:00
6:56 AM,75.0,73.0,94,29.97,8.0,West,4.6,-,0.01,Rain,Light Rain,280,2013-09-29 11:56:00
7:27 AM,73.4,71.6,94,29.98,1.0,WSW,5.8,-,0.16,Rain,Heavy Rain,250,2013-09-29 12:27:00
7:36 AM,73.4,71.6,94,29.98,1.0,Calm,Calm,-,0.33,Rain,Heavy Rain,0,2013-09-29 12:36:00
7:47 AM,73.4,71.6,94,29.98,4.0,Calm,Calm,-,0.39,Rain,Heavy Rain,0,2013-09-29 12:47:00
7:56 AM,73.0,71.1,93,29.97,9.0,SSE,6.9,-,0.41,Rain,Light Rain,160,2013-09-29 12:56:00
8:19 AM,73.4,71.6,94,29.98,6.0,SSE,8.1,-,0.00,,Overcast,150,2013-09-29 13:19:00
8:34 AM,73.4,71.6,94,29.98,3.0,SSE,10.4,-,0.01,Rain,Rain,150,2013-09-29 13:34:00
8:38 AM,73.4,71.6,94,29.98,3.0,SSE,8.1,-,0.02,Rain,Rain,150,2013-09-29 13:38:00
8:41 AM,73.4,71.6,94,29.98,2.0,SSE,6.9,-,0.06,Rain,Heavy Rain,150,2013-09-29 13:41:00
8:45 AM,73.4,71.6,94,29.98,2.0,SSE,8.1,-,0.14,Rain,Heavy Rain,150,2013-09-29 13:45:00
8:56 AM,73.9,72.0,93,29.97,2.5,South,5.8,-,0.25,Rain,Rain,170,2013-09-29 13:56:00
9:01 AM,73.4,71.6,94,29.98,4.0,South,10.4,-,0.00,Rain,Light Rain,170,2013-09-29 14:01:00
9:06 AM,73.4,71.6,94,29.98,6.0,South,11.5,-,0.00,,Overcast,170,2013-09-29 14:06:00
9:50 AM,73.4,71.6,94,29.99,8.0,South,15.0,-,0.00,Rain,Light Rain,170,2013-09-29 14:50:00
9:56 AM,73.9,72.0,93,29.98,7.0,South,9.2,-,0.01,Rain,Rain,180,2013-09-29 14:56:00
10:56 AM,75.0,73.0,94,29.98,10.0,South,9.2,-,0.05,Rain,Light Rain,180,2013-09-29 15:56:00
11:56 AM,75.0,73.0,94,29.98,10.0,South,5.8,-,0.00,,Overcast,190,2013-09-29 16:56:00
12:56 PM,75.9,73.9,94,29.96,10.0,SSW,6.9,-,N/A,,Overcast,200,2013-09-29 17:56:00
1:40 PM,75.2,73.4,94,29.95,2.0,South,8.1,-,0.01,Rain,Light Rain,180,2013-09-29 18:40:00
1:56 PM,75.9,73.9,94,29.93,2.0,South,5.8,-,0.03,Rain,Light Rain,180,2013-09-29 18:56:00
2:11 PM,75.2,73.4,94,29.93,2.5,South,6.9,-,0.00,Rain,Light Rain,190,2013-09-29 19:11:00
2:23 PM,75.2,73.4,94,29.93,2.5,South,8.1,-,0.01,Rain,Light Rain,190,2013-09-29 19:23:00
2:43 PM,75.2,73.4,94,29.92,3.0,South,10.4,-,0.07,Rain,Light Rain,180,2013-09-29 19:43:00
2:56 PM,75.9,73.9,94,29.91,6.0,Variable,5.8,-,0.07,,Overcast,0,2013-09-29 19:56:00
3:21 PM,77.0,75.2,94,29.91,7.0,Calm,Calm,-,0.01,,Overcast,0,2013-09-29 20:21:00
3:39 PM,78.8,75.2,89,29.90,10.0,Calm,Calm,-,0.01,,Overcast,0,2013-09-29 20:39:00
3:47 PM,78.8,75.2,89,29.90,10.0,SW,3.5,-,0.01,,Overcast,230,2013-09-29 20:47:00
3:56 PM,78.1,75.9,93,29.89,10.0,SSW,5.8,-,0.01,,Overcast,210,2013-09-29 20:56:00
4:46 PM,77.0,73.4,89,29.90,7.0,NNE,4.6,-,0.03,,Overcast,30,2013-09-29 21:46:00
4:56 PM,77.0,73.9,90,29.89,7.0,ENE,3.5,-,0.03,,Overcast,60,2013-09-29 21:56:00
5:06 PM,77.0,73.4,89,29.90,7.0,Calm,Calm,-,N/A,,Overcast,0,2013-09-29 22:06:00
5:56 PM,75.0,73.0,94,29.89,5.0,Calm,Calm,-,0.09,Rain,Heavy Rain,0,2013-09-29 22:56:00
6:56 PM,75.0,73.0,94,29.89,3.0,NNW,6.9,-,0.17,Rain,Light Rain,340,2013-09-29 23:56:00
7:40 PM,75.2,73.4,94,29.91,7.0,WNW,3.5,-,0.00,Rain,Light Rain,300,2013-09-30 00:40:00
7:51 PM,75.2,73.4,94,29.91,7.0,NW,3.5,-,0.00,,Overcast,320,2013-09-30 00:51:00
7:56 PM,75.0,73.0,94,29.90,10.0,NW,3.5,-,0.00,,Overcast,320,2013-09-30 00:56:00
8:25 PM,75.2,73.4,94,29.91,10.0,Calm,Calm,-,N/A,,Overcast,0,2013-09-30 01:25:00
8:56 PM,75.0,73.0,94,29.91,6.0,Calm,Calm,-,0.00,Rain,Light Rain,0,2013-09-30 01:56:00
9:56 PM,75.0,73.0,94,29.91,7.0,Calm,Calm,-,0.00,,Overcast,0,2013-09-30 02:56:00
10:38 PM,73.4,71.6,94,29.92,10.0,South,6.9,-,N/A,,Overcast,170,2013-09-30 03:38:00
10:56 PM,73.9,72.0,93,29.91,3.0,SSE,11.5,-,0.02,Rain,Light Rain,160,2013-09-30 03:56:00
11:18 PM,73.4,71.6,94,29.92,10.0,SSE,4.6,-,0.01,,Overcast,150,2013-09-30 04:18:00
11:56 PM,73.9,73.0,97,29.91,10.0,South,3.5,-,0.01,,Overcast,180,2013-09-30 04:56:00